sensor_id;sensor_type;location;lat;lon;timestamp;pressure;altitude;pressure_sealevel;temperature;humidity
36454;BME280;22478;51.740;-1.314;2024-03-23T00:55:32;100233.62;;;-2.47;100.00
36454;BME280;22478;51.740;-1.314;2024-03-23T00:58:00;100228.03;;;0.16;100.00
36454;BME280;22478;51.740;-1.314;2024-03-23T01:00:27;100217.92;;;0.83;100.00
36454;BME280;22478;51.740;-1.314;2024-03-23T01:02:54;100220.58;;;-0.50;100.00
36454;BME280;22478;51.740;-1.314;2024-03-23T01:05:21;100211.81;;;0.50;100.00
36454;BME280;22478;51.740;-1.314;2024-03-23T01:07:48;100224.12;;;-1.27;100.00
36454;BME280;22478;51.740;-1.314;2024-03-23T01:10:15;100216.91;;;0.44;100.00
36454;BME280;22478;51.740;-1.314;2024-03-23T01:12:43;100213.12;;;0.38;100.00
36454;BME280;22478;51.740;-1.314;2024-03-23T01:15:10;100219.89;;;-1.46;100.00
36454;BME280;22478;51.740;-1.314;2024-03-23T01:17:37;100217.18;;;-0.80;100.00
36454;BME280;22478;51.740;-1.314;2024-03-23T01:20:04;100217.45;;;-1.62;100.00
36454;BME280;22478;51.740;-1.314;2024-03-23T01:22:32;100214.10;;;-1.06;100.00
36454;BME280;22478;51.740;-1.314;2024-03-23T01:24:59;100213.35;;;-2.77;100.00
36454;BME280;22478;51.740;-1.314;2024-03-23T01:27:26;100212.76;;;-1.45;100.00
36454;BME280;22478;51.740;-1.314;2024-03-23T01:29:53;100214.16;;;-1.63;100.00
36454;BME280;22478;51.740;-1.314;2024-03-23T01:32:21;100202.18;;;-0.79;100.00
36454;BME280;22478;51.740;-1.314;2024-03-23T01:34:48;100201.72;;;0.03;100.00
36454;BME280;22478;51.740;-1.314;2024-03-23T01:37:15;100200.02;;;0.48;100.00
36454;BME280;22478;51.740;-1.314;2024-03-23T01:39:42;100201.65;;;-0.91;100.00
36454;BME280;22478;51.740;-1.314;2024-03-23T01:42:09;100203.56;;;-1.63;100.00
36454;BME280;22478;51.740;-1.314;2024-03-23T01:44:37;100202.59;;;-1.76;100.00
36454;BME280;22478;51.740;-1.314;2024-03-23T01:47:04;100193.88;;;-1.45;100.00
36454;BME280;22478;51.740;-1.314;2024-03-23T01:49:33;100195.35;;;-1.21;100.00
36454;BME280;22478;51.740;-1.314;2024-03-23T01:52:01;100189.66;;;-0.21;100.00
36454;BME280;22478;51.740;-1.314;2024-03-23T01:54:29;100188.65;;;-1.03;100.00
36454;BME280;22478;51.740;-1.314;2024-03-23T01:56:57;100188.36;;;-1.50;100.00
36454;BME280;22478;51.740;-1.314;2024-03-23T01:59:25;100192.00;;;-2.71;100.00
36454;BME280;22478;51.740;-1.314;2024-03-23T02:01:52;100186.68;;;-1.06;100.00
36454;BME280;22478;51.740;-1.314;2024-03-23T02:04:20;100187.95;;;-2.94;100.00
36454;BME280;22478;51.740;-1.314;2024-03-23T02:06:47;100185.99;;;-2.17;100.00
36454;BME280;22478;51.740;-1.314;2024-03-23T02:09:14;100189.73;;;-2.76;100.00
36454;BME280;22478;51.740;-1.314;2024-03-23T02:11:41;100186.21;;;-3.79;100.00
36454;BME280;22478;51.740;-1.314;2024-03-23T02:14:09;100182.62;;;-3.29;100.00
36454;BME280;22478;51.740;-1.314;2024-03-23T02:16:36;100179.87;;;-3.42;100.00
36454;BME280;22478;51.740;-1.314;2024-03-23T02:19:03;100176.62;;;-1.31;100.00
36454;BME280;22478;51.740;-1.314;2024-03-23T02:21:30;100180.00;;;-3.60;100.00
36454;BME280;22478;51.740;-1.314;2024-03-23T02:23:59;100170.13;;;-1.90;100.00
36454;BME280;22478;51.740;-1.314;2024-03-23T02:26:26;100170.53;;;-2.13;100.00
36454;BME280;22478;51.740;-1.314;2024-03-23T02:28:53;100170.30;;;-3.15;100.00
36454;BME280;22478;51.740;-1.314;2024-03-23T02:31:20;100169.02;;;-1.36;100.00
36454;BME280;22478;51.740;-1.314;2024-03-23T02:33:47;100171.75;;;-1.97;100.00
36454;BME280;22478;51.740;-1.314;2024-03-23T02:36:14;100171.70;;;-2.61;100.00
36454;BME280;22478;51.740;-1.314;2024-03-23T02:38:42;100175.74;;;-3.44;100.00
36454;BME280;22478;51.740;-1.314;2024-03-23T02:41:09;100170.00;;;-2.17;100.00
36454;BME280;22478;51.740;-1.314;2024-03-23T02:43:36;100165.84;;;-3.49;100.00
36454;BME280;22478;51.740;-1.314;2024-03-23T02:46:03;100160.70;;;-1.97;100.00
36454;BME280;22478;51.740;-1.314;2024-03-23T02:48:30;100159.62;;;-1.95;100.00
36454;BME280;22478;51.740;-1.314;2024-03-23T02:50:57;100160.22;;;-4.17;100.00
36454;BME280;22478;51.740;-1.314;2024-03-23T02:53:25;100157.32;;;-2.58;100.00
36454;BME280;22478;51.740;-1.314;2024-03-23T02:55:52;100163.90;;;-3.54;100.00
36454;BME280;22478;51.740;-1.314;2024-03-23T02:58:19;100157.50;;;-2.31;100.00
36454;BME280;22478;51.740;-1.314;2024-03-23T03:00:47;100160.16;;;-2.53;100.00
36454;BME280;22478;51.740;-1.314;2024-03-23T03:03:14;100157.64;;;-3.39;100.00
36454;BME280;22478;51.740;-1.314;2024-03-23T03:05:41;100153.64;;;-3.32;100.00
36454;BME280;22478;51.740;-1.314;2024-03-23T03:08:08;100163.06;;;-3.09;100.00
36454;BME280;22478;51.740;-1.314;2024-03-23T03:10:36;100157.18;;;-3.19;100.00
36454;BME280;22478;51.740;-1.314;2024-03-23T03:13:03;100158.98;;;-2.94;100.00
36454;BME280;22478;51.740;-1.314;2024-03-23T03:15:30;100160.08;;;-2.27;100.00
36454;BME280;22478;51.740;-1.314;2024-03-23T03:17:57;100164.02;;;-2.36;100.00
36454;BME280;22478;51.740;-1.314;2024-03-23T03:20:24;100169.01;;;-2.03;100.00
36454;BME280;22478;51.740;-1.314;2024-03-23T03:22:51;100170.06;;;-2.91;100.00
36454;BME280;22478;51.740;-1.314;2024-03-23T03:25:19;100170.36;;;-3.49;100.00
36454;BME280;22478;51.740;-1.314;2024-03-23T03:27:46;100164.81;;;-2.19;100.00
36454;BME280;22478;51.740;-1.314;2024-03-23T03:30:13;100163.63;;;-2.59;100.00
36454;BME280;22478;51.740;-1.314;2024-03-23T03:32:40;100160.80;;;-1.67;100.00
36454;BME280;22478;51.740;-1.314;2024-03-23T03:35:08;100162.86;;;-1.99;100.00
36454;BME280;22478;51.740;-1.314;2024-03-23T03:37:35;100159.42;;;0.31;100.00
36454;BME280;22478;51.740;-1.314;2024-03-23T03:40:02;100163.59;;;-2.78;100.00
36454;BME280;22478;51.740;-1.314;2024-03-23T03:42:29;100149.29;;;-0.31;100.00
36454;BME280;22478;51.740;-1.314;2024-03-23T03:44:57;100151.14;;;-2.70;100.00
36454;BME280;22478;51.740;-1.314;2024-03-23T03:47:24;100150.48;;;-3.11;100.00
36454;BME280;22478;51.740;-1.314;2024-03-23T03:49:51;100151.15;;;-2.50;100.00
36454;BME280;22478;51.740;-1.314;2024-03-23T03:52:19;100152.45;;;-3.05;100.00
36454;BME280;22478;51.740;-1.314;2024-03-23T03:54:46;100149.43;;;-1.94;100.00
36454;BME280;22478;51.740;-1.314;2024-03-23T03:57:13;100142.46;;;-3.43;100.00
36454;BME280;22478;51.740;-1.314;2024-03-23T03:59:40;100137.02;;;-0.94;100.00
36454;BME280;22478;51.740;-1.314;2024-03-23T04:02:08;100138.51;;;-2.60;100.00
36454;BME280;22478;51.740;-1.314;2024-03-23T04:04:35;100133.25;;;-0.46;100.00
36454;BME280;22478;51.740;-1.314;2024-03-23T04:07:03;100134.34;;;-1.72;100.00
36454;BME280;22478;51.740;-1.314;2024-03-23T04:09:30;100133.28;;;-1.08;100.00
36454;BME280;22478;51.740;-1.314;2024-03-23T04:11:57;100130.98;;;-1.97;100.00
36454;BME280;22478;51.740;-1.314;2024-03-23T04:14:25;100126.98;;;-1.07;100.00
36454;BME280;22478;51.740;-1.314;2024-03-23T04:16:52;100124.49;;;-1.08;100.00
36454;BME280;22478;51.740;-1.314;2024-03-23T04:19:19;100129.56;;;-3.97;100.00
36454;BME280;22478;51.740;-1.314;2024-03-23T04:21:47;100132.62;;;-3.51;100.00
36454;BME280;22478;51.740;-1.314;2024-03-23T04:24:14;100137.76;;;-4.36;100.00
36454;BME280;22478;51.740;-1.314;2024-03-23T04:26:41;100141.94;;;-3.50;100.00
36454;BME280;22478;51.740;-1.314;2024-03-23T04:29:08;100135.13;;;-2.25;100.00
36454;BME280;22478;51.740;-1.314;2024-03-23T04:31:35;100128.93;;;-2.83;100.00
36454;BME280;22478;51.740;-1.314;2024-03-23T04:34:03;100131.87;;;-4.44;100.00
36454;BME280;22478;51.740;-1.314;2024-03-23T04:36:30;100128.49;;;-3.67;100.00
36454;BME280;22478;51.740;-1.314;2024-03-23T04:38:59;100125.71;;;-3.28;100.00
36454;BME280;22478;51.740;-1.314;2024-03-23T04:41:26;100120.73;;;-2.83;100.00
36454;BME280;22478;51.740;-1.314;2024-03-23T04:43:54;100118.57;;;-3.38;100.00
36454;BME280;22478;51.740;-1.314;2024-03-23T04:46:21;100112.78;;;-2.66;100.00
36454;BME280;22478;51.740;-1.314;2024-03-23T04:48:48;100121.84;;;-3.69;100.00
36454;BME280;22478;51.740;-1.314;2024-03-23T04:51:20;100118.77;;;-3.33;100.00
36454;BME280;22478;51.740;-1.314;2024-03-23T04:53:48;100112.45;;;-3.23;100.00
36454;BME280;22478;51.740;-1.314;2024-03-23T04:56:15;100106.79;;;-1.03;100.00
36454;BME280;22478;51.740;-1.314;2024-03-23T04:58:43;100106.41;;;-2.87;100.00
36454;BME280;22478;51.740;-1.314;2024-03-23T05:01:11;100104.37;;;-3.24;100.00
36454;BME280;22478;51.740;-1.314;2024-03-23T05:03:38;100100.99;;;-2.00;100.00
36454;BME280;22478;51.740;-1.314;2024-03-23T05:06:05;100108.76;;;-3.58;100.00
36454;BME280;22478;51.740;-1.314;2024-03-23T05:08:32;100104.28;;;-2.66;100.00
36454;BME280;22478;51.740;-1.314;2024-03-23T05:11:00;100101.42;;;-2.76;100.00
36454;BME280;22478;51.740;-1.314;2024-03-23T05:13:27;100114.62;;;-4.40;100.00
36454;BME280;22478;51.740;-1.314;2024-03-23T05:15:54;100107.20;;;-2.56;100.00
36454;BME280;22478;51.740;-1.314;2024-03-23T05:18:21;100097.45;;;-3.26;100.00
36454;BME280;22478;51.740;-1.314;2024-03-23T05:20:48;100095.64;;;-2.07;100.00
36454;BME280;22478;51.740;-1.314;2024-03-23T05:23:15;100088.88;;;-0.99;100.00
36454;BME280;22478;51.740;-1.314;2024-03-23T05:25:43;100089.87;;;-3.05;100.00
36454;BME280;22478;51.740;-1.314;2024-03-23T05:28:10;100077.64;;;0.11;100.00
36454;BME280;22478;51.740;-1.314;2024-03-23T05:30:37;100079.96;;;-1.91;100.00
36454;BME280;22478;51.740;-1.314;2024-03-23T05:33:05;100080.17;;;-2.47;100.00
36454;BME280;22478;51.740;-1.314;2024-03-23T05:35:32;100078.35;;;-3.02;100.00
36454;BME280;22478;51.740;-1.314;2024-03-23T05:37:59;100078.16;;;-1.99;100.00
36454;BME280;22478;51.740;-1.314;2024-03-23T05:40:27;100081.25;;;-2.33;100.00
36454;BME280;22478;51.740;-1.314;2024-03-23T05:42:54;100083.36;;;-2.38;100.00
36454;BME280;22478;51.740;-1.314;2024-03-23T05:45:21;100088.59;;;-3.65;100.00
36454;BME280;22478;51.740;-1.314;2024-03-23T05:47:48;100088.09;;;-1.82;100.00
36454;BME280;22478;51.740;-1.314;2024-03-23T05:50:16;100086.16;;;-2.31;100.00
36454;BME280;22478;51.740;-1.314;2024-03-23T05:52:43;100081.05;;;-1.90;100.00
36454;BME280;22478;51.740;-1.314;2024-03-23T05:55:10;100078.22;;;-1.55;100.00
36454;BME280;22478;51.740;-1.314;2024-03-23T05:57:37;100068.71;;;-0.55;100.00
36454;BME280;22478;51.740;-1.314;2024-03-23T06:00:06;100075.86;;;-3.26;100.00
36454;BME280;22478;51.740;-1.314;2024-03-23T06:02:34;100080.39;;;-1.00;100.00
36454;BME280;22478;51.740;-1.314;2024-03-23T06:05:01;100071.81;;;-1.15;100.00
36454;BME280;22478;51.740;-1.314;2024-03-23T06:07:28;100074.87;;;-1.82;100.00
36454;BME280;22478;51.740;-1.314;2024-03-23T06:09:55;100068.09;;;-0.35;100.00
36454;BME280;22478;51.740;-1.314;2024-03-23T06:12:23;100083.93;;;-2.64;100.00
36454;BME280;22478;51.740;-1.314;2024-03-23T06:14:50;100078.79;;;-2.22;100.00
36454;BME280;22478;51.740;-1.314;2024-03-23T06:17:17;100074.56;;;-0.17;100.00
36454;BME280;22478;51.740;-1.314;2024-03-23T06:19:44;100079.99;;;-3.14;100.00
36454;BME280;22478;51.740;-1.314;2024-03-23T06:22:12;100084.19;;;-1.83;100.00
36454;BME280;22478;51.740;-1.314;2024-03-23T06:24:40;100080.61;;;-0.94;100.00
36454;BME280;22478;51.740;-1.314;2024-03-23T06:27:08;100086.72;;;-3.52;100.00
36454;BME280;22478;51.740;-1.314;2024-03-23T06:29:35;100086.16;;;-3.25;100.00
36454;BME280;22478;51.740;-1.314;2024-03-23T06:32:02;100082.78;;;-3.12;100.00
36454;BME280;22478;51.740;-1.314;2024-03-23T06:34:29;100081.70;;;-1.55;100.00
36454;BME280;22478;51.740;-1.314;2024-03-23T06:36:57;100078.36;;;-0.67;100.00
36454;BME280;22478;51.740;-1.314;2024-03-23T06:39:24;100083.66;;;-2.65;100.00
36454;BME280;22478;51.740;-1.314;2024-03-23T06:41:53;100077.31;;;-3.55;100.00
36454;BME280;22478;51.740;-1.314;2024-03-23T06:44:21;100074.84;;;-1.92;100.00
36454;BME280;22478;51.740;-1.314;2024-03-23T06:46:48;100067.19;;;-3.17;100.00
36454;BME280;22478;51.740;-1.314;2024-03-23T06:49:15;100064.86;;;-3.15;100.00
36454;BME280;22478;51.740;-1.314;2024-03-23T06:51:42;100064.05;;;-2.03;100.00
36454;BME280;22478;51.740;-1.314;2024-03-23T06:54:09;100053.96;;;-1.89;100.00
36454;BME280;22478;51.740;-1.314;2024-03-23T06:56:37;100061.64;;;-3.14;100.00
36454;BME280;22478;51.740;-1.314;2024-03-23T06:59:05;100064.78;;;-2.27;100.00
36454;BME280;22478;51.740;-1.314;2024-03-23T07:01:32;100058.45;;;-1.68;100.00
36454;BME280;22478;51.740;-1.314;2024-03-23T07:03:59;100052.98;;;-0.70;100.00
36454;BME280;22478;51.740;-1.314;2024-03-23T07:06:27;100055.77;;;-2.58;100.00
36454;BME280;22478;51.740;-1.314;2024-03-23T07:08:54;100058.20;;;-3.34;100.00
36454;BME280;22478;51.740;-1.314;2024-03-23T07:11:22;100057.36;;;-1.84;100.00
36454;BME280;22478;51.740;-1.314;2024-03-23T07:13:50;100050.35;;;-2.31;100.00
36454;BME280;22478;51.740;-1.314;2024-03-23T07:16:18;100053.57;;;-3.17;100.00
36454;BME280;22478;51.740;-1.314;2024-03-23T07:18:45;100046.97;;;-3.38;100.00
36454;BME280;22478;51.740;-1.314;2024-03-23T07:21:14;100038.19;;;-3.56;100.00
36454;BME280;22478;51.740;-1.314;2024-03-23T07:23:42;100032.35;;;-1.76;100.00
36454;BME280;22478;51.740;-1.314;2024-03-23T07:26:10;100032.90;;;-3.10;100.00
36454;BME280;22478;51.740;-1.314;2024-03-23T07:28:37;100032.74;;;-3.00;100.00
36454;BME280;22478;51.740;-1.314;2024-03-23T07:31:05;100023.48;;;-3.47;100.00
36454;BME280;22478;51.740;-1.314;2024-03-23T07:33:33;100022.25;;;-2.91;100.00
36454;BME280;22478;51.740;-1.314;2024-03-23T07:36:00;100010.75;;;-1.96;100.00
36454;BME280;22478;51.740;-1.314;2024-03-23T07:38:28;100007.25;;;-3.23;100.00
36454;BME280;22478;51.740;-1.314;2024-03-23T07:41:04;100004.02;;;-1.88;100.00
36454;BME280;22478;51.740;-1.314;2024-03-23T07:43:32;100002.87;;;-3.38;100.00
36454;BME280;22478;51.740;-1.314;2024-03-23T07:46:00;99998.68;;;-3.81;100.00
36454;BME280;22478;51.740;-1.314;2024-03-23T07:48:28;99996.87;;;-2.95;100.00
36454;BME280;22478;51.740;-1.314;2024-03-23T07:51:00;99993.99;;;-3.60;100.00
36454;BME280;22478;51.740;-1.314;2024-03-23T07:53:28;99999.97;;;-2.44;100.00
36454;BME280;22478;51.740;-1.314;2024-03-23T07:55:56;99994.63;;;-1.98;100.00
36454;BME280;22478;51.740;-1.314;2024-03-23T07:58:24;99991.71;;;-1.48;100.00
36454;BME280;22478;51.740;-1.314;2024-03-23T08:00:52;99994.29;;;-1.30;100.00
36454;BME280;22478;51.740;-1.314;2024-03-23T08:03:20;99984.96;;;-0.84;100.00
36454;BME280;22478;51.740;-1.314;2024-03-23T08:05:53;99989.01;;;-0.88;100.00
36454;BME280;22478;51.740;-1.314;2024-03-23T08:08:20;99984.34;;;-1.50;100.00
36454;BME280;22478;51.740;-1.314;2024-03-23T08:10:49;99974.96;;;0.88;100.00
36454;BME280;22478;51.740;-1.314;2024-03-23T08:13:17;99983.83;;;0.29;100.00
36454;BME280;22478;51.740;-1.314;2024-03-23T08:15:45;99983.20;;;-1.18;100.00
36454;BME280;22478;51.740;-1.314;2024-03-23T08:18:13;99986.28;;;-0.77;100.00
36454;BME280;22478;51.740;-1.314;2024-03-23T08:20:40;99983.24;;;0.52;100.00
36454;BME280;22478;51.740;-1.314;2024-03-23T08:23:08;99983.75;;;0.34;100.00
36454;BME280;22478;51.740;-1.314;2024-03-23T08:25:35;99987.01;;;1.11;100.00
36454;BME280;22478;51.740;-1.314;2024-03-23T08:28:03;99988.83;;;0.79;100.00
36454;BME280;22478;51.740;-1.314;2024-03-23T08:30:30;99992.96;;;1.93;95.79
36454;BME280;22478;51.740;-1.314;2024-03-23T08:32:57;99988.36;;;0.98;89.30
36454;BME280;22478;51.740;-1.314;2024-03-23T08:35:24;99990.83;;;1.60;94.62
36454;BME280;22478;51.740;-1.314;2024-03-23T08:37:51;99992.19;;;0.69;99.86
36454;BME280;22478;51.740;-1.314;2024-03-23T08:40:19;99979.74;;;0.09;100.00
36454;BME280;22478;51.740;-1.314;2024-03-23T08:42:46;99983.75;;;0.16;100.00
36454;BME280;22478;51.740;-1.314;2024-03-23T08:45:13;99982.99;;;-1.32;100.00
36454;BME280;22478;51.740;-1.314;2024-03-23T08:47:40;99980.67;;;-1.03;100.00
36454;BME280;22478;51.740;-1.314;2024-03-23T08:50:09;99979.20;;;-1.39;100.00
36454;BME280;22478;51.740;-1.314;2024-03-23T08:52:36;99980.06;;;-1.17;100.00
36454;BME280;22478;51.740;-1.314;2024-03-23T08:55:04;99967.20;;;-1.31;100.00
36454;BME280;22478;51.740;-1.314;2024-03-23T08:57:31;99972.50;;;-1.54;100.00
36454;BME280;22478;51.740;-1.314;2024-03-23T08:59:58;99966.83;;;-1.20;100.00
36454;BME280;22478;51.740;-1.314;2024-03-23T09:02:26;99959.32;;;-1.57;100.00
36454;BME280;22478;51.740;-1.314;2024-03-23T09:04:53;99949.91;;;-0.96;100.00
36454;BME280;22478;51.740;-1.314;2024-03-23T09:07:20;99951.88;;;-1.12;100.00
36454;BME280;22478;51.740;-1.314;2024-03-23T09:09:47;99945.81;;;0.53;100.00
36454;BME280;22478;51.740;-1.314;2024-03-23T09:12:14;99932.28;;;-0.22;100.00
36454;BME280;22478;51.740;-1.314;2024-03-23T09:14:41;99942.98;;;-1.58;100.00
36454;BME280;22478;51.740;-1.314;2024-03-23T09:17:08;99944.82;;;-0.79;100.00
36454;BME280;22478;51.740;-1.314;2024-03-23T09:19:35;99941.48;;;0.15;100.00
36454;BME280;22478;51.740;-1.314;2024-03-23T09:22:03;99937.35;;;-0.63;100.00
36454;BME280;22478;51.740;-1.314;2024-03-23T09:24:31;99938.17;;;-0.51;100.00
36454;BME280;22478;51.740;-1.314;2024-03-23T09:26:58;99933.15;;;0.13;100.00
36454;BME280;22478;51.740;-1.314;2024-03-23T09:29:25;99939.46;;;-0.52;100.00
36454;BME280;22478;51.740;-1.314;2024-03-23T09:31:52;99938.33;;;-0.35;100.00
36454;BME280;22478;51.740;-1.314;2024-03-23T09:34:19;99931.65;;;-0.41;100.00
36454;BME280;22478;51.740;-1.314;2024-03-23T09:36:47;99932.48;;;0.06;99.84
36454;BME280;22478;51.740;-1.314;2024-03-23T09:39:14;99926.24;;;0.07;100.00
36454;BME280;22478;51.740;-1.314;2024-03-23T09:41:41;99925.63;;;0.65;100.00
36454;BME280;22478;51.740;-1.314;2024-03-23T09:44:08;99926.94;;;0.39;100.00
36454;BME280;22478;51.740;-1.314;2024-03-23T09:46:35;99926.84;;;0.69;98.37
36454;BME280;22478;51.740;-1.314;2024-03-23T09:49:02;99916.08;;;1.74;93.57
36454;BME280;22478;51.740;-1.314;2024-03-23T09:51:30;99920.26;;;0.66;96.12
36454;BME280;22478;51.740;-1.314;2024-03-23T09:53:58;99915.58;;;0.07;98.07
36454;BME280;22478;51.740;-1.314;2024-03-23T09:56:25;99902.35;;;0.94;92.01
36454;BME280;22478;51.740;-1.314;2024-03-23T09:59:00;99908.06;;;1.89;94.30
36454;BME280;22478;51.740;-1.314;2024-03-23T10:01:29;99910.01;;;1.88;80.74
36454;BME280;22478;51.740;-1.314;2024-03-23T10:03:56;99911.07;;;1.52;84.78
36454;BME280;22478;51.740;-1.314;2024-03-23T10:06:23;99904.90;;;1.52;83.74
36454;BME280;22478;51.740;-1.314;2024-03-23T10:08:51;99899.20;;;0.91;84.56
36454;BME280;22478;51.740;-1.314;2024-03-23T10:11:19;99903.95;;;1.90;84.04
36454;BME280;22478;51.740;-1.314;2024-03-23T10:13:46;99901.13;;;0.44;85.29
36454;BME280;22478;51.740;-1.314;2024-03-23T10:16:21;99901.09;;;1.27;83.93
36454;BME280;22478;51.740;-1.314;2024-03-23T10:18:49;99892.51;;;2.91;77.44
36454;BME280;22478;51.740;-1.314;2024-03-23T10:21:18;99892.01;;;2.66;74.78
36454;BME280;22478;51.740;-1.314;2024-03-23T10:23:45;99893.11;;;1.45;83.01
36454;BME280;22478;51.740;-1.314;2024-03-23T10:26:15;99881.82;;;2.86;73.51
36454;BME280;22478;51.740;-1.314;2024-03-23T10:28:55;99882.50;;;3.16;70.50
36454;BME280;22478;51.740;-1.314;2024-03-23T10:31:23;99882.11;;;2.20;70.67
36454;BME280;22478;51.740;-1.314;2024-03-23T10:33:51;99870.76;;;3.95;67.66
36454;BME280;22478;51.740;-1.314;2024-03-23T10:36:20;99870.87;;;2.46;73.06
36454;BME280;22478;51.740;-1.314;2024-03-23T10:38:47;99853.90;;;5.11;67.46
36454;BME280;22478;51.740;-1.314;2024-03-23T10:41:16;99851.65;;;3.24;71.19
36454;BME280;22478;51.740;-1.314;2024-03-23T10:43:46;99848.19;;;4.89;63.13
36454;BME280;22478;51.740;-1.314;2024-03-23T10:46:13;99840.61;;;4.53;65.37
36454;BME280;22478;51.740;-1.314;2024-03-23T10:48:41;99842.73;;;3.20;64.44
36454;BME280;22478;51.740;-1.314;2024-03-23T10:51:09;99847.79;;;2.94;66.59
36454;BME280;22478;51.740;-1.314;2024-03-23T10:53:37;99838.53;;;3.29;66.61
36454;BME280;22478;51.740;-1.314;2024-03-23T10:56:05;99843.35;;;3.35;65.44
36454;BME280;22478;51.740;-1.314;2024-03-23T10:58:37;99834.85;;;4.46;66.75
36454;BME280;22478;51.740;-1.314;2024-03-23T11:01:05;99837.75;;;3.32;66.43
36454;BME280;22478;51.740;-1.314;2024-03-23T11:03:34;99830.35;;;2.11;66.42
36454;BME280;22478;51.740;-1.314;2024-03-23T11:06:02;99832.62;;;2.46;72.85
36454;BME280;22478;51.740;-1.314;2024-03-23T11:08:32;99828.87;;;1.68;76.87
36454;BME280;22478;51.740;-1.314;2024-03-23T11:11:17;99827.80;;;0.83;77.55
36454;BME280;22478;51.740;-1.314;2024-03-23T11:13:44;99825.21;;;1.40;80.41
36454;BME280;22478;51.740;-1.314;2024-03-23T11:16:15;99823.38;;;1.94;81.72
36454;BME280;22478;51.740;-1.314;2024-03-23T11:18:43;99812.66;;;2.53;77.59
36454;BME280;22478;51.740;-1.314;2024-03-23T11:21:10;99810.29;;;4.07;70.86
36454;BME280;22478;51.740;-1.314;2024-03-23T11:24:18;99804.11;;;5.11;66.15
36454;BME280;22478;51.740;-1.314;2024-03-23T11:26:45;99809.54;;;5.06;61.69
36454;BME280;22478;51.740;-1.314;2024-03-23T11:29:15;99821.28;;;3.32;65.94
36454;BME280;22478;51.740;-1.314;2024-03-23T11:31:46;99823.21;;;4.00;65.50
36454;BME280;22478;51.740;-1.314;2024-03-23T11:34:15;99833.26;;;1.63;82.82
36454;BME280;22478;51.740;-1.314;2024-03-23T11:36:43;99832.19;;;1.68;95.34
36454;BME280;22478;51.740;-1.314;2024-03-23T11:39:14;99843.22;;;0.28;100.00
36454;BME280;22478;51.740;-1.314;2024-03-23T11:41:49;99837.54;;;0.83;100.00
36454;BME280;22478;51.740;-1.314;2024-03-23T11:44:18;99831.49;;;0.90;100.00
36454;BME280;22478;51.740;-1.314;2024-03-23T11:46:46;99827.39;;;2.73;100.00
36454;BME280;22478;51.740;-1.314;2024-03-23T11:49:22;99815.09;;;4.97;83.70
36454;BME280;22478;51.740;-1.314;2024-03-23T11:51:50;99818.45;;;3.88;87.05
36454;BME280;22478;51.740;-1.314;2024-03-23T11:54:20;99804.88;;;5.45;77.76
36454;BME280;22478;51.740;-1.314;2024-03-23T11:56:56;99804.73;;;5.42;70.88
36454;BME280;22478;51.740;-1.314;2024-03-23T11:59:33;99801.21;;;5.06;69.39
36454;BME280;22478;51.740;-1.314;2024-03-23T12:02:05;99809.85;;;3.15;74.16
36454;BME280;22478;51.740;-1.314;2024-03-23T12:04:33;99801.73;;;3.92;74.91
36454;BME280;22478;51.740;-1.314;2024-03-23T12:07:17;99810.22;;;4.29;77.00
36454;BME280;22478;51.740;-1.314;2024-03-23T12:09:45;99835.61;;;2.19;100.00
36454;BME280;22478;51.740;-1.314;2024-03-23T12:12:14;99860.91;;;-0.28;100.00
36454;BME280;22478;51.740;-1.314;2024-03-23T12:14:42;99864.33;;;0.16;100.00
36454;BME280;22478;51.740;-1.314;2024-03-23T12:17:11;99868.14;;;-1.86;100.00
36454;BME280;22478;51.740;-1.314;2024-03-23T12:19:39;99863.10;;;-0.31;100.00
36454;BME280;22478;51.740;-1.314;2024-03-23T12:22:07;99853.32;;;-0.26;100.00
36454;BME280;22478;51.740;-1.314;2024-03-23T12:24:35;99858.42;;;-0.94;100.00
36454;BME280;22478;51.740;-1.314;2024-03-23T12:27:03;99847.53;;;-1.16;100.00
36454;BME280;22478;51.740;-1.314;2024-03-23T12:29:31;99849.18;;;-0.88;100.00
36454;BME280;22478;51.740;-1.314;2024-03-23T12:32:00;99823.92;;;-0.92;100.00
36454;BME280;22478;51.740;-1.314;2024-03-23T12:34:28;99828.49;;;-1.26;100.00
36454;BME280;22478;51.740;-1.314;2024-03-23T12:36:56;99819.83;;;-1.02;100.00
36454;BME280;22478;51.740;-1.314;2024-03-23T12:39:24;99806.07;;;0.37;100.00
36454;BME280;22478;51.740;-1.314;2024-03-23T12:41:51;99797.62;;;0.32;100.00
36454;BME280;22478;51.740;-1.314;2024-03-23T12:44:18;99780.86;;;-0.12;100.00
36454;BME280;22478;51.740;-1.314;2024-03-23T12:46:45;99779.30;;;-0.58;100.00
36454;BME280;22478;51.740;-1.314;2024-03-23T12:49:12;99782.82;;;1.00;100.00
36454;BME280;22478;51.740;-1.314;2024-03-23T12:51:46;99773.52;;;2.51;100.00
36454;BME280;22478;51.740;-1.314;2024-03-23T12:54:15;99765.23;;;2.27;96.49
36454;BME280;22478;51.740;-1.314;2024-03-23T12:56:42;99763.56;;;3.71;96.32
36454;BME280;22478;51.740;-1.314;2024-03-23T12:59:09;99761.98;;;1.70;100.00
36454;BME280;22478;51.740;-1.314;2024-03-23T13:01:36;99763.79;;;3.96;91.85
36454;BME280;22478;51.740;-1.314;2024-03-23T13:04:03;99766.47;;;2.01;96.35
36454;BME280;22478;51.740;-1.314;2024-03-23T13:06:31;99758.29;;;4.50;89.99
36454;BME280;22478;51.740;-1.314;2024-03-23T13:08:58;99772.41;;;3.00;95.18
36454;BME280;22478;51.740;-1.314;2024-03-23T13:11:25;99775.65;;;2.34;97.83
36454;BME280;22478;51.740;-1.314;2024-03-23T13:13:52;99767.79;;;2.34;95.92
36454;BME280;22478;51.740;-1.314;2024-03-23T13:16:19;99769.57;;;1.52;92.22
36454;BME280;22478;51.740;-1.314;2024-03-23T13:18:46;99771.94;;;1.46;98.04
36454;BME280;22478;51.740;-1.314;2024-03-23T13:21:13;99767.02;;;1.94;98.67
36454;BME280;22478;51.740;-1.314;2024-03-23T13:23:40;99772.82;;;1.59;100.00
36454;BME280;22478;51.740;-1.314;2024-03-23T13:26:08;99764.67;;;2.51;100.00
36454;BME280;22478;51.740;-1.314;2024-03-23T13:28:35;99767.22;;;2.45;100.00
36454;BME280;22478;51.740;-1.314;2024-03-23T13:31:03;99768.68;;;0.37;100.00
36454;BME280;22478;51.740;-1.314;2024-03-23T13:33:31;99762.02;;;1.87;100.00
36454;BME280;22478;51.740;-1.314;2024-03-23T13:35:58;99758.07;;;1.88;100.00
36454;BME280;22478;51.740;-1.314;2024-03-23T13:38:26;99752.77;;;1.18;100.00